Time;durP1;ratioP1;P1;durP2;ratioP2;P2;SDS_P1;SDS_P2;PMS_P1;PMS_P2;Temp;Humidity;BMP_temperature;BMP_pressure;BME280_temperature;BME280_humidity;BME280_pressure;Samples;Min_cycle;Max_cycle;Signal;HPM_P1;HPM_P2
2023/03/22 00:02:45;;;;;;;5.75;3.30;;;;;;;8.89;53.00;100000.91;19897611;29;20293;-88
2023/03/22 00:12:52;;;;;;;4.47;2.93;;;;;;;8.55;54.11;99997.03;19888205;29;20234;-86
2023/03/22 00:22:54;;;;;;;6.47;3.67;;;;;;;9.08;52.38;99992.81;19945937;29;20296;-87
2023/03/22 00:32:56;;;;;;;3.65;3.15;;;;;;;8.63;54.12;99982.16;19968575;29;20268;-87
2023/03/22 00:42:58;;;;;;;5.50;3.55;;;;;;;9.15;52.20;99981.84;19982032;29;20219;-87
2023/03/22 00:53:02;;;;;;;6.97;3.63;;;;;;;8.77;53.12;99976.28;19966890;29;20204;-86
2023/03/22 01:03:05;;;;;;;4.27;2.97;;;;;;;8.90;53.10;99957.50;19960506;29;20223;-88
2023/03/22 01:13:09;;;;;;;6.47;3.80;;;;;;;9.30;52.01;99941.81;19970837;29;20211;-85
2023/03/22 01:23:12;;;;;;;5.70;3.50;;;;;;;9.02;52.87;99926.63;19972964;29;20981;-87
2023/03/22 01:33:14;;;;;;;6.87;4.07;;;;;;;8.40;55.12;99921.63;19966098;29;20266;-86
2023/03/22 01:43:17;;;;;;;5.70;4.83;;;;;;;8.34;55.35;99911.75;19916481;29;20219;-91
2023/03/22 01:53:22;;;;;;;4.78;4.20;;;;;;;8.58;55.14;99911.94;19962526;29;20212;-86
2023/03/22 02:03:49;;;;;;;6.45;5.10;;;;;;;8.94;53.97;99897.34;19947666;29;20272;-87
2023/03/22 02:14:17;;;;;;;6.30;5.10;;;;;;;8.89;54.55;99874.22;19944024;29;20208;-86
2023/03/22 02:24:54;;;;;;;7.43;5.30;;;;;;;8.72;55.08;99864.72;19974459;29;20236;-86
2023/03/22 02:34:56;;;;;;;8.03;4.97;;;;;;;8.45;55.66;99856.75;19942941;29;20204;-87
2023/03/22 02:45:35;;;;;;;8.90;5.60;;;;;;;8.23;56.23;99855.06;19951195;29;20702;-85
2023/03/22 02:56:01;;;;;;;6.40;5.57;;;;;;;8.08;56.58;99822.72;19971451;29;20199;-88
2023/03/22 03:06:11;;;;;;;6.77;5.87;;;;;;;8.05;57.36;99826.19;19959248;29;20296;-86
2023/03/22 03:16:17;;;;;;;7.20;5.63;;;;;;;7.98;57.29;99817.47;19955992;29;20623;-85
2023/03/22 03:26:29;;;;;;;7.30;5.67;;;;;;;7.95;57.99;99806.06;19967592;29;20228;-87
2023/03/22 03:36:36;;;;;;;6.50;5.53;;;;;;;7.74;58.96;99806.00;19975662;29;20195;-86
2023/03/22 03:46:39;;;;;;;7.10;5.17;;;;;;;7.90;58.14;99801.44;19969938;29;20239;-85
2023/03/22 03:56:41;;;;;;;6.83;5.40;;;;;;;7.70;58.60;99799.41;19952908;29;20512;-86
2023/03/22 04:06:44;;;;;;;7.80;6.03;;;;;;;7.77;59.24;99799.69;19976194;29;20231;-85
2023/03/22 04:16:52;;;;;;;10.07;6.20;;;;;;;7.49;59.24;99795.66;19973961;29;20296;-87
2023/03/22 04:26:58;;;;;;;9.07;5.53;;;;;;;7.57;59.06;99783.56;19977724;29;20277;-85
2023/03/22 04:37:05;;;;;;;9.63;5.67;;;;;;;7.13;60.27;99793.22;19948349;29;20272;-89
2023/03/22 04:47:11;;;;;;;8.17;5.30;;;;;;;7.37;59.73;99783.09;19958561;29;20277;-87
2023/03/22 04:57:14;;;;;;;7.77;5.43;;;;;;;7.35;59.68;99785.44;19957646;29;20233;-86
2023/03/22 05:07:21;;;;;;;8.63;5.50;;;;;;;7.06;60.61;99776.91;19965699;29;20515;-86
2023/03/22 05:17:28;;;;;;;9.57;4.90;;;;;;;7.45;59.38;99778.63;19943162;29;20297;-87
2023/03/22 05:27:33;;;;;;;7.80;5.23;;;;;;;7.34;60.30;99777.34;19967152;29;20288;-85
2023/03/22 05:37:51;;;;;;;8.53;4.87;;;;;;;7.41;59.91;99772.84;19963235;29;20204;-87
2023/03/22 05:47:55;;;;;;;6.13;5.07;;;;;;;7.35;59.80;99773.38;19970609;29;20232;-84
2023/03/22 05:58:00;;;;;;;7.67;5.17;;;;;;;7.60;59.57;99772.47;19962974;29;20252;-85
2023/03/22 06:08:05;;;;;;;8.47;4.83;;;;;;;7.78;58.43;99768.44;19948545;29;20223;-85
2023/03/22 06:18:07;;;;;;;9.40;4.70;;;;;;;7.87;58.73;99765.63;19969962;29;20227;-70
2023/03/22 06:28:14;;;;;;;7.63;4.80;;;;;;;7.79;58.81;99756.06;19967915;29;20223;-85
2023/03/22 06:38:23;;;;;;;8.20;4.63;;;;;;;8.00;58.25;99761.75;19954997;29;20495;-85
2023/03/22 06:48:27;;;;;;;6.83;4.13;;;;;;;8.16;57.96;99770.41;19974782;29;20261;-88
2023/03/22 06:58:46;;;;;;;5.57;4.00;;;;;;;8.02;57.66;99748.16;19969530;29;20216;-87
2023/03/22 07:08:50;;;;;;;5.50;3.70;;;;;;;8.81;54.87;99752.91;19949255;29;20594;-86
2023/03/22 07:18:58;;;;;;;8.07;3.72;;;;;;;8.43;56.23;99747.38;19966637;29;20300;-86
2023/03/22 07:29:01;;;;;;;8.70;3.57;;;;;;;8.06;57.38;99737.88;19969886;29;20279;-86
2023/03/22 07:39:06;;;;;;;9.32;3.53;;;;;;;8.52;55.94;99740.88;19964745;29;20208;-88
2023/03/22 07:49:13;;;;;;;8.73;3.20;;;;;;;9.33;53.77;99723.38;19950033;29;20232;-86
2023/03/22 07:59:45;;;;;;;4.73;2.50;;;;;;;10.18;51.28;99704.53;19970459;29;20487;-86
2023/03/22 08:09:49;;;;;;;5.57;2.37;;;;;;;9.49;52.14;99702.66;19960480;29;20296;-85
2023/03/22 08:19:53;;;;;;;4.80;1.80;;;;;;;9.67;51.15;99708.09;19948798;29;20246;-87
2023/03/22 08:30:01;;;;;;;7.88;1.98;;;;;;;9.96;49.40;99710.66;19959541;29;20223;-85
2023/03/22 08:40:08;;;;;;;3.88;1.00;;;;;;;9.24;49.10;99719.84;19982526;29;20200;-87
2023/03/22 08:50:22;;;;;;;2.15;1.20;;;;;;;10.10;46.66;99705.47;19959055;29;20386;-86
2023/03/22 09:00:31;;;;;;;2.60;1.10;;;;;;;9.95;47.21;99714.69;19970196;29;20256;-86
2023/03/22 09:11:11;;;;;;;2.83;1.10;;;;;;;10.19;45.58;99711.84;19962554;29;20724;-88
2023/03/22 09:21:13;;;;;;;3.15;1.10;;;;;;;9.97;45.43;99705.84;19987258;29;20231;-88
2023/03/22 09:31:39;;;;;;;3.47;1.60;;;;;;;10.15;46.90;99710.88;19982002;29;20211;-90
2023/03/22 09:41:56;;;;;;;5.27;1.60;;;;;;;10.37;47.90;99691.78;19967963;29;20298;-88
2023/03/22 09:51:59;;;;;;;4.97;1.50;;;;;;;11.66;44.89;99678.09;19982113;29;20208;-88
2023/03/22 10:02:20;;;;;;;6.18;1.10;;;;;;;12.07;42.55;99665.34;19965577;29;20251;-86
2023/03/22 10:12:28;;;;;;;2.97;0.90;;;;;;;10.51;44.29;99695.09;19948895;29;20260;-87
2023/03/22 10:22:34;;;;;;;2.42;0.85;;;;;;;11.32;43.07;99673.97;19977183;29;20227;-86
2023/03/22 10:32:48;;;;;;;6.32;1.27;;;;;;;10.69;44.21;99690.78;19940321;29;20200;-86
2023/03/22 10:43:05;;;;;;;2.75;0.75;;;;;;;10.93;42.83;99689.84;19953951;29;20219;-87
2023/03/22 10:53:10;;;;;;;2.80;0.60;;;;;;;10.55;41.72;99685.56;19952170;29;20555;-88
2023/03/22 11:03:26;;;;;;;2.95;0.80;;;;;;;11.58;40.46;99688.41;19938389;29;20506;-87
2023/03/22 11:13:32;;;;;;;6.53;0.80;;;;;;;10.71;40.77;99677.16;19955467;29;20236;-88
2023/03/22 11:23:37;;;;;;;3.42;0.60;;;;;;;11.30;40.01;99676.34;19958096;29;20239;-86
2023/03/22 11:33:59;;;;;;;2.17;0.60;;;;;;;11.50;39.69;99680.13;19954815;29;20212;-87
2023/03/22 11:44:04;;;;;;;4.07;0.67;;;;;;;11.46;39.54;99671.56;19960051;29;20586;-89
2023/03/22 11:54:16;;;;;;;3.45;0.60;;;;;;;11.24;39.80;99661.69;19989154;29;20234;-89
2023/03/22 12:04:23;;;;;;;3.90;0.90;;;;;;;10.50;42.10;99671.69;19992641;29;20222;-86
2023/03/22 12:14:33;;;;;;;2.77;0.67;;;;;;;10.43;43.71;99659.34;19992754;29;20196;-89
2023/03/22 12:24:35;;;;;;;2.93;0.40;;;;;;;10.96;42.04;99639.13;19985323;29;20278;-87
2023/03/22 12:34:44;;;;;;;1.97;0.47;;;;;;;10.92;43.37;99621.25;19964175;29;20650;-86
2023/03/22 12:44:47;;;;;;;2.90;0.40;;;;;;;11.69;41.15;99632.97;19966472;29;20295;-88
2023/03/22 12:55:17;;;;;;;1.37;0.57;;;;;;;10.80;40.79;99641.09;19994017;29;20210;-88
2023/03/22 13:05:19;;;;;;;1.50;0.60;;;;;;;10.38;42.18;99645.47;19966817;29;20255;-88
2023/03/22 13:15:31;;;;;;;1.77;0.50;;;;;;;11.10;42.97;99666.94;19985539;29;20264;-86
2023/03/22 13:25:58;;;;;;;2.07;0.50;;;;;;;10.46;43.95;99681.22;19958105;29;20240;-86
2023/03/22 13:36:24;;;;;;;1.70;0.50;;;;;;;10.06;43.25;99669.91;19967966;29;20276;-88
2023/03/22 13:46:50;;;;;;;4.40;0.80;;;;;;;10.47;42.44;99658.28;19967907;29;20284;-87
2023/03/22 13:56:59;;;;;;;1.10;0.40;;;;;;;10.40;42.29;99660.06;19982231;29;20569;-87
2023/03/22 14:07:32;;;;;;;2.33;0.80;;;;;;;11.15;41.02;99651.72;19957643;29;20709;-88
2023/03/22 14:17:42;;;;;;;2.25;0.93;;;;;;;11.44;40.56;99642.00;19940348;29;20222;-87
2023/03/22 14:27:45;;;;;;;3.53;0.90;;;;;;;10.70;42.87;99629.50;19940538;29;20238;-86
2023/03/22 14:37:47;;;;;;;1.60;0.60;;;;;;;10.54;43.77;99604.88;19971418;29;20241;-88
2023/03/22 14:47:48;;;;;;;3.25;0.70;;;;;;;10.43;43.74;99622.66;19961893;29;20287;-88
2023/03/22 14:57:53;;;;;;;1.67;0.53;;;;;;;10.05;45.23;99620.31;19942287;29;20486;-90
2023/03/22 15:08:09;;;;;;;1.83;0.60;;;;;;;9.93;46.19;99624.00;19972936;29;20274;-86
2023/03/22 15:18:17;;;;;;;2.73;0.90;;;;;;;10.15;46.75;99612.19;19948248;29;20227;-88
2023/03/22 15:28:20;;;;;;;3.90;0.75;;;;;;;10.44;45.63;99615.84;19945011;29;20224;-87
2023/03/22 15:38:35;;;;;;;4.93;1.00;;;;;;;10.87;44.94;99598.94;19966553;29;20504;-84
2023/03/22 15:49:01;;;;;;;1.90;1.00;;;;;;;10.83;44.99;99600.84;19962587;29;20285;-86
2023/03/22 15:59:04;;;;;;;3.17;1.10;;;;;;;10.68;46.16;99598.00;19958732;29;20211;-76
2023/03/22 16:09:05;;;;;;;4.03;1.10;;;;;;;10.52;46.45;99590.31;19981925;29;20215;-72
2023/03/22 16:19:07;;;;;;;5.57;1.37;;;;;;;10.52;45.77;99578.19;19988022;29;20232;-84
2023/03/22 16:29:08;;;;;;;46.22;12.05;;;;;;;10.59;45.28;99595.34;19952471;29;20621;-76
2023/03/22 16:39:10;;;;;;;16.70;5.67;;;;;;;10.89;44.96;99590.91;19975424;29;20200;-76
2023/03/22 16:49:11;;;;;;;43.70;11.73;;;;;;;10.91;44.20;99590.56;19968716;29;20228;-85
2023/03/22 16:59:12;;;;;;;12.70;4.10;;;;;;;10.72;44.67;99580.00;19942652;29;20196;-86
2023/03/22 17:09:13;;;;;;;6.00;1.63;;;;;;;11.46;43.23;99585.94;19928459;29;20260;-86
2023/03/22 17:19:14;;;;;;;16.97;3.93;;;;;;;10.12;45.88;99576.22;19912849;29;20287;-84
2023/03/22 17:29:15;;;;;;;8.23;2.37;;;;;;;10.87;44.46;99567.03;19934963;29;20231;-85
2023/03/22 17:39:16;;;;;;;5.70;1.30;;;;;;;10.45;44.79;99563.88;19919619;29;20210;-86
2023/03/22 17:49:18;;;;;;;7.17;1.50;;;;;;;10.70;44.56;99562.59;19938466;29;20339;-83
2023/03/22 17:59:19;;;;;;;5.57;1.80;;;;;;;10.86;44.66;99559.78;19914768;29;20208;-85
2023/03/22 18:09:20;;;;;;;4.32;0.90;;;;;;;10.86;44.52;99563.41;19908889;29;20220;-84
2023/03/22 18:19:22;;;;;;;3.13;1.00;;;;;;;11.22;43.54;99561.50;19913705;29;20320;-85
2023/03/22 18:29:26;;;;;;;6.40;1.10;;;;;;;11.15;44.14;99552.84;19916848;29;20296;-84
2023/03/22 18:39:27;;;;;;;4.00;1.30;;;;;;;10.38;46.02;99560.84;19922811;29;20697;-85
2023/03/22 18:49:28;;;;;;;0.83;0.67;;;;;;;10.78;45.24;99564.41;19933068;29;20778;-84
2023/03/22 18:59:31;;;;;;;5.00;1.23;;;;;;;10.57;45.82;99552.53;19932821;29;20204;-85
2023/03/22 19:09:32;;;;;;;2.87;1.10;;;;;;;10.48;46.08;99549.00;19928912;29;20251;-84
2023/03/22 19:19:33;;;;;;;3.57;1.63;;;;;;;10.51;46.88;99526.56;19917168;29;20284;-84
2023/03/22 19:29:34;;;;;;;3.93;1.27;;;;;;;11.16;45.66;99535.53;19921665;29;20235;-87
2023/03/22 19:39:36;;;;;;;3.63;1.80;;;;;;;10.57;46.65;99507.38;19936130;29;20228;-84
2023/03/22 19:49:39;;;;;;;3.87;1.20;;;;;;;10.58;47.04;99503.38;19946465;29;20252;-86
2023/03/22 19:59:40;;;;;;;3.80;1.30;;;;;;;10.02;50.12;99511.88;19945976;29;20215;-87
2023/03/22 20:09:41;;;;;;;2.60;1.33;;;;;;;10.39;50.06;99483.47;19950818;29;20235;-85
2023/03/22 20:19:43;;;;;;;3.23;1.67;;;;;;;10.20;50.11;99470.09;19955727;29;20224;-85
2023/03/22 20:29:44;;;;;;;3.70;1.43;;;;;;;10.84;48.95;99478.25;19948335;29;20319;-84
2023/03/22 20:39:45;;;;;;;3.87;1.10;;;;;;;10.52;50.10;99462.50;19945560;29;20280;-85
2023/03/22 20:49:46;;;;;;;3.03;1.23;;;;;;;10.49;49.77;99477.31;19923488;29;20287;-85
